sensor_id;sensor_type;location;lat;lon;timestamp;P1;durP1;ratioP1;P2;durP2;ratioP2
5199;SDS011;2619;47.868;11.892;2023-02-13T00:01:12;44.83;;;17.07;;
5199;SDS011;2619;47.868;11.892;2023-02-13T00:03:38;118.10;;;19.97;;
5199;SDS011;2619;47.868;11.892;2023-02-13T00:06:03;71.57;;;18.40;;
5199;SDS011;2619;47.868;11.892;2023-02-13T00:08:29;48.93;;;17.37;;
5199;SDS011;2619;47.868;11.892;2023-02-13T00:10:55;56.47;;;19.10;;
5199;SDS011;2619;47.868;11.892;2023-02-13T00:13:21;43.63;;;16.53;;
5199;SDS011;2619;47.868;11.892;2023-02-13T00:15:53;40.23;;;16.93;;
5199;SDS011;2619;47.868;11.892;2023-02-13T00:18:23;45.13;;;15.60;;
5199;SDS011;2619;47.868;11.892;2023-02-13T00:20:56;49.93;;;17.40;;
5199;SDS011;2619;47.868;11.892;2023-02-13T00:23:22;38.93;;;15.03;;
5199;SDS011;2619;47.868;11.892;2023-02-13T00:25:48;39.30;;;15.80;;
5199;SDS011;2619;47.868;11.892;2023-02-13T00:28:13;46.47;;;18.60;;
5199;SDS011;2619;47.868;11.892;2023-02-13T00:30:39;51.50;;;18.10;;
5199;SDS011;2619;47.868;11.892;2023-02-13T00:33:04;41.67;;;17.07;;
5199;SDS011;2619;47.868;11.892;2023-02-13T00:35:30;53.63;;;17.50;;
5199;SDS011;2619;47.868;11.892;2023-02-13T00:37:56;71.77;;;19.77;;
5199;SDS011;2619;47.868;11.892;2023-02-13T00:40:21;60.70;;;18.73;;
5199;SDS011;2619;47.868;11.892;2023-02-13T00:42:47;48.17;;;15.00;;
5199;SDS011;2619;47.868;11.892;2023-02-13T00:45:12;52.93;;;18.40;;
5199;SDS011;2619;47.868;11.892;2023-02-13T00:47:38;37.47;;;16.73;;
5199;SDS011;2619;47.868;11.892;2023-02-13T00:50:04;54.43;;;16.10;;
5199;SDS011;2619;47.868;11.892;2023-02-13T00:52:30;39.97;;;16.73;;
5199;SDS011;2619;47.868;11.892;2023-02-13T00:54:55;69.97;;;19.13;;
5199;SDS011;2619;47.868;11.892;2023-02-13T00:57:21;73.67;;;20.60;;
5199;SDS011;2619;47.868;11.892;2023-02-13T00:59:46;59.17;;;19.50;;
5199;SDS011;2619;47.868;11.892;2023-02-13T01:02:12;83.17;;;19.53;;
5199;SDS011;2619;47.868;11.892;2023-02-13T01:04:37;46.33;;;17.53;;
5199;SDS011;2619;47.868;11.892;2023-02-13T01:07:03;92.03;;;20.80;;
5199;SDS011;2619;47.868;11.892;2023-02-13T01:09:29;47.90;;;17.30;;
5199;SDS011;2619;47.868;11.892;2023-02-13T01:11:54;49.20;;;18.77;;
5199;SDS011;2619;47.868;11.892;2023-02-13T01:14:20;40.50;;;16.23;;
5199;SDS011;2619;47.868;11.892;2023-02-13T01:16:45;47.43;;;16.07;;
5199;SDS011;2619;47.868;11.892;2023-02-13T01:19:11;62.20;;;18.30;;
5199;SDS011;2619;47.868;11.892;2023-02-13T01:21:36;61.90;;;17.20;;
5199;SDS011;2619;47.868;11.892;2023-02-13T01:24:03;47.13;;;17.47;;
5199;SDS011;2619;47.868;11.892;2023-02-13T01:26:29;97.43;;;20.20;;
5199;SDS011;2619;47.868;11.892;2023-02-13T01:28:55;42.63;;;15.30;;
5199;SDS011;2619;47.868;11.892;2023-02-13T01:31:22;43.40;;;17.37;;
5199;SDS011;2619;47.868;11.892;2023-02-13T01:33:48;37.23;;;16.80;;
5199;SDS011;2619;47.868;11.892;2023-02-13T01:36:13;41.10;;;17.87;;
5199;SDS011;2619;47.868;11.892;2023-02-13T01:38:39;44.13;;;16.93;;
5199;SDS011;2619;47.868;11.892;2023-02-13T01:41:05;47.97;;;18.83;;
5199;SDS011;2619;47.868;11.892;2023-02-13T01:46:28;44.20;;;16.10;;
5199;SDS011;2619;47.868;11.892;2023-02-13T01:49:08;53.50;;;20.10;;
5199;SDS011;2619;47.868;11.892;2023-02-13T01:51:48;41.50;;;17.77;;
5199;SDS011;2619;47.868;11.892;2023-02-13T01:54:16;43.07;;;18.63;;
5199;SDS011;2619;47.868;11.892;2023-02-13T01:56:55;48.03;;;18.00;;
5199;SDS011;2619;47.868;11.892;2023-02-13T01:59:27;43.30;;;20.50;;
5199;SDS011;2619;47.868;11.892;2023-02-13T02:01:57;42.47;;;19.70;;
5199;SDS011;2619;47.868;11.892;2023-02-13T02:04:31;47.80;;;19.53;;
5199;SDS011;2619;47.868;11.892;2023-02-13T02:07:08;54.57;;;18.97;;
5199;SDS011;2619;47.868;11.892;2023-02-13T02:09:38;41.93;;;18.60;;
5199;SDS011;2619;47.868;11.892;2023-02-13T02:15:02;44.23;;;18.97;;
5199;SDS011;2619;47.868;11.892;2023-02-13T02:17:29;53.23;;;19.90;;
5199;SDS011;2619;47.868;11.892;2023-02-13T02:33:15;32.20;;;14.73;;
5199;SDS011;2619;47.868;11.892;2023-02-13T02:35:48;38.63;;;16.03;;
5199;SDS011;2619;47.868;11.892;2023-02-13T02:41:09;34.97;;;14.23;;
5199;SDS011;2619;47.868;11.892;2023-02-13T02:55:32;26.40;;;13.60;;
5199;SDS011;2619;47.868;11.892;2023-02-13T03:01:15;43.67;;;15.80;;
5199;SDS011;2619;47.868;11.892;2023-02-13T03:04:02;28.70;;;13.70;;
5199;SDS011;2619;47.868;11.892;2023-02-13T03:06:57;46.77;;;14.47;;
5199;SDS011;2619;47.868;11.892;2023-02-13T03:09:28;34.90;;;16.47;;
5199;SDS011;2619;47.868;11.892;2023-02-13T03:12:18;36.57;;;14.50;;
5199;SDS011;2619;47.868;11.892;2023-02-13T03:15:06;33.50;;;13.80;;
5199;SDS011;2619;47.868;11.892;2023-02-13T03:17:33;37.03;;;13.70;;
5199;SDS011;2619;47.868;11.892;2023-02-13T03:29:15;41.70;;;14.57;;
5199;SDS011;2619;47.868;11.892;2023-02-13T03:32:13;29.43;;;14.07;;
5199;SDS011;2619;47.868;11.892;2023-02-13T03:35:26;27.93;;;13.17;;
5199;SDS011;2619;47.868;11.892;2023-02-13T03:38:29;36.10;;;14.53;;
5199;SDS011;2619;47.868;11.892;2023-02-13T03:46:33;27.30;;;14.13;;
5199;SDS011;2619;47.868;11.892;2023-02-13T03:49:03;29.17;;;14.60;;
5199;SDS011;2619;47.868;11.892;2023-02-13T03:52:07;31.70;;;12.70;;
5199;SDS011;2619;47.868;11.892;2023-02-13T03:55:01;60.33;;;15.00;;
5199;SDS011;2619;47.868;11.892;2023-02-13T03:57:53;39.17;;;14.43;;
5199;SDS011;2619;47.868;11.892;2023-02-13T04:00:42;40.43;;;14.00;;
5199;SDS011;2619;47.868;11.892;2023-02-13T04:05:49;36.80;;;14.83;;
5199;SDS011;2619;47.868;11.892;2023-02-13T04:08:19;38.70;;;17.37;;
5199;SDS011;2619;47.868;11.892;2023-02-13T04:11:00;34.80;;;16.33;;
5199;SDS011;2619;47.868;11.892;2023-02-13T04:13:38;38.63;;;14.50;;
5199;SDS011;2619;47.868;11.892;2023-02-13T04:16:19;37.93;;;14.90;;
5199;SDS011;2619;47.868;11.892;2023-02-13T04:18:51;44.87;;;16.50;;
5199;SDS011;2619;47.868;11.892;2023-02-13T04:21:18;41.50;;;15.07;;
5199;SDS011;2619;47.868;11.892;2023-02-13T04:23:43;35.57;;;15.40;;
5199;SDS011;2619;47.868;11.892;2023-02-13T04:26:11;40.57;;;17.00;;
5199;SDS011;2619;47.868;11.892;2023-02-13T04:28:43;40.40;;;16.60;;
5199;SDS011;2619;47.868;11.892;2023-02-13T04:31:08;72.77;;;18.00;;
5199;SDS011;2619;47.868;11.892;2023-02-13T04:33:34;52.23;;;15.77;;
5199;SDS011;2619;47.868;11.892;2023-02-13T04:36:00;42.30;;;16.03;;
5199;SDS011;2619;47.868;11.892;2023-02-13T04:38:25;37.77;;;14.97;;
5199;SDS011;2619;47.868;11.892;2023-02-13T04:40:51;35.87;;;16.00;;
5199;SDS011;2619;47.868;11.892;2023-02-13T04:43:16;35.17;;;16.30;;
5199;SDS011;2619;47.868;11.892;2023-02-13T04:45:42;40.80;;;18.13;;
5199;SDS011;2619;47.868;11.892;2023-02-13T04:48:07;43.07;;;15.73;;
5199;SDS011;2619;47.868;11.892;2023-02-13T04:50:33;31.17;;;13.67;;
5199;SDS011;2619;47.868;11.892;2023-02-13T04:52:58;37.70;;;15.50;;
5199;SDS011;2619;47.868;11.892;2023-02-13T04:55:25;56.67;;;17.17;;
5199;SDS011;2619;47.868;11.892;2023-02-13T04:57:52;36.67;;;16.87;;
5199;SDS011;2619;47.868;11.892;2023-02-13T05:00:19;37.67;;;16.33;;
5199;SDS011;2619;47.868;11.892;2023-02-13T05:02:45;41.23;;;15.33;;
5199;SDS011;2619;47.868;11.892;2023-02-13T05:05:11;42.53;;;16.20;;
5199;SDS011;2619;47.868;11.892;2023-02-13T05:07:36;43.03;;;15.67;;
5199;SDS011;2619;47.868;11.892;2023-02-13T05:10:02;35.10;;;15.07;;
5199;SDS011;2619;47.868;11.892;2023-02-13T05:12:28;44.97;;;16.43;;
5199;SDS011;2619;47.868;11.892;2023-02-13T05:14:53;33.93;;;15.53;;
5199;SDS011;2619;47.868;11.892;2023-02-13T05:17:19;41.30;;;17.23;;
5199;SDS011;2619;47.868;11.892;2023-02-13T05:19:44;33.53;;;15.20;;
5199;SDS011;2619;47.868;11.892;2023-02-13T05:22:10;31.50;;;16.23;;
5199;SDS011;2619;47.868;11.892;2023-02-13T05:24:54;38.53;;;16.77;;
5199;SDS011;2619;47.868;11.892;2023-02-13T05:27:20;32.80;;;15.33;;
5199;SDS011;2619;47.868;11.892;2023-02-13T05:29:45;30.90;;;15.03;;
5199;SDS011;2619;47.868;11.892;2023-02-13T05:32:11;32.40;;;15.00;;
5199;SDS011;2619;47.868;11.892;2023-02-13T05:34:36;39.63;;;16.17;;
5199;SDS011;2619;47.868;11.892;2023-02-13T05:37:02;32.57;;;15.13;;
5199;SDS011;2619;47.868;11.892;2023-02-13T05:39:28;35.50;;;17.13;;
5199;SDS011;2619;47.868;11.892;2023-02-13T05:41:53;33.50;;;16.33;;
5199;SDS011;2619;47.868;11.892;2023-02-13T05:44:19;35.00;;;15.33;;
5199;SDS011;2619;47.868;11.892;2023-02-13T05:46:44;29.50;;;15.80;;
5199;SDS011;2619;47.868;11.892;2023-02-13T05:49:11;35.43;;;14.70;;
5199;SDS011;2619;47.868;11.892;2023-02-13T05:51:37;30.40;;;14.93;;
5199;SDS011;2619;47.868;11.892;2023-02-13T05:54:03;31.17;;;15.90;;
5199;SDS011;2619;47.868;11.892;2023-02-13T05:56:29;35.50;;;14.10;;
5199;SDS011;2619;47.868;11.892;2023-02-13T05:58:54;29.00;;;14.63;;
5199;SDS011;2619;47.868;11.892;2023-02-13T06:01:21;33.43;;;15.17;;
5199;SDS011;2619;47.868;11.892;2023-02-13T06:03:48;36.67;;;15.90;;
5199;SDS011;2619;47.868;11.892;2023-02-13T06:06:14;34.10;;;16.13;;
5199;SDS011;2619;47.868;11.892;2023-02-13T06:08:40;30.83;;;15.47;;
5199;SDS011;2619;47.868;11.892;2023-02-13T06:11:06;30.10;;;14.80;;
5199;SDS011;2619;47.868;11.892;2023-02-13T06:13:31;32.47;;;15.00;;
5199;SDS011;2619;47.868;11.892;2023-02-13T06:15:57;40.87;;;16.83;;
5199;SDS011;2619;47.868;11.892;2023-02-13T06:18:22;31.83;;;15.30;;
5199;SDS011;2619;47.868;11.892;2023-02-13T06:20:48;37.30;;;16.53;;
5199;SDS011;2619;47.868;11.892;2023-02-13T06:23:14;35.73;;;15.10;;
5199;SDS011;2619;47.868;11.892;2023-02-13T06:25:41;30.83;;;15.93;;
5199;SDS011;2619;47.868;11.892;2023-02-13T06:28:07;38.60;;;16.60;;
5199;SDS011;2619;47.868;11.892;2023-02-13T06:30:33;44.40;;;16.50;;
5199;SDS011;2619;47.868;11.892;2023-02-13T06:32:58;40.93;;;17.00;;
5199;SDS011;2619;47.868;11.892;2023-02-13T06:35:24;30.10;;;16.03;;
5199;SDS011;2619;47.868;11.892;2023-02-13T06:37:50;34.47;;;15.60;;
5199;SDS011;2619;47.868;11.892;2023-02-13T06:40:16;32.97;;;17.43;;
5199;SDS011;2619;47.868;11.892;2023-02-13T06:42:42;34.83;;;18.00;;
5199;SDS011;2619;47.868;11.892;2023-02-13T06:45:09;38.90;;;17.43;;
5199;SDS011;2619;47.868;11.892;2023-02-13T06:47:35;38.27;;;17.17;;
5199;SDS011;2619;47.868;11.892;2023-02-13T06:50:04;37.63;;;16.63;;
5199;SDS011;2619;47.868;11.892;2023-02-13T06:52:31;40.33;;;17.47;;
5199;SDS011;2619;47.868;11.892;2023-02-13T06:54:56;43.27;;;18.00;;
5199;SDS011;2619;47.868;11.892;2023-02-13T06:57:22;40.17;;;17.93;;
5199;SDS011;2619;47.868;11.892;2023-02-13T06:59:47;39.43;;;17.93;;
5199;SDS011;2619;47.868;11.892;2023-02-13T07:02:13;45.00;;;17.20;;
5199;SDS011;2619;47.868;11.892;2023-02-13T07:04:39;38.67;;;16.53;;
5199;SDS011;2619;47.868;11.892;2023-02-13T07:07:04;41.73;;;18.07;;
5199;SDS011;2619;47.868;11.892;2023-02-13T07:09:30;43.57;;;17.97;;
5199;SDS011;2619;47.868;11.892;2023-02-13T07:11:56;33.40;;;15.93;;
5199;SDS011;2619;47.868;11.892;2023-02-13T07:14:22;32.23;;;16.10;;
5199;SDS011;2619;47.868;11.892;2023-02-13T07:16:48;40.07;;;17.23;;
5199;SDS011;2619;47.868;11.892;2023-02-13T07:19:13;40.33;;;17.97;;
5199;SDS011;2619;47.868;11.892;2023-02-13T07:21:39;34.90;;;16.03;;
5199;SDS011;2619;47.868;11.892;2023-02-13T07:24:05;36.20;;;16.17;;
5199;SDS011;2619;47.868;11.892;2023-02-13T07:26:30;44.93;;;18.30;;
5199;SDS011;2619;47.868;11.892;2023-02-13T07:28:56;37.53;;;16.80;;
5199;SDS011;2619;47.868;11.892;2023-02-13T07:31:22;39.00;;;16.00;;
5199;SDS011;2619;47.868;11.892;2023-02-13T07:33:47;29.50;;;16.97;;
5199;SDS011;2619;47.868;11.892;2023-02-13T07:36:13;29.90;;;14.50;;
5199;SDS011;2619;47.868;11.892;2023-02-13T07:38:39;34.80;;;16.80;;
5199;SDS011;2619;47.868;11.892;2023-02-13T07:41:05;35.87;;;17.83;;
5199;SDS011;2619;47.868;11.892;2023-02-13T07:43:30;43.27;;;18.23;;
5199;SDS011;2619;47.868;11.892;2023-02-13T07:45:58;38.60;;;18.67;;
5199;SDS011;2619;47.868;11.892;2023-02-13T07:48:24;37.83;;;17.20;;
5199;SDS011;2619;47.868;11.892;2023-02-13T07:50:54;41.87;;;17.10;;
5199;SDS011;2619;47.868;11.892;2023-02-13T07:53:23;34.87;;;16.33;;
5199;SDS011;2619;47.868;11.892;2023-02-13T07:55:49;32.33;;;16.57;;
5199;SDS011;2619;47.868;11.892;2023-02-13T07:58:15;33.63;;;17.63;;
5199;SDS011;2619;47.868;11.892;2023-02-13T08:00:40;35.53;;;15.97;;
5199;SDS011;2619;47.868;11.892;2023-02-13T08:03:06;33.43;;;15.73;;
5199;SDS011;2619;47.868;11.892;2023-02-13T08:05:32;32.33;;;15.03;;
5199;SDS011;2619;47.868;11.892;2023-02-13T08:07:58;32.50;;;14.50;;
5199;SDS011;2619;47.868;11.892;2023-02-13T08:10:23;30.87;;;14.90;;
5199;SDS011;2619;47.868;11.892;2023-02-13T08:13:07;34.97;;;15.97;;
5199;SDS011;2619;47.868;11.892;2023-02-13T08:15:34;27.30;;;14.67;;
5199;SDS011;2619;47.868;11.892;2023-02-13T08:18:00;30.20;;;14.93;;
5199;SDS011;2619;47.868;11.892;2023-02-13T08:20:26;30.87;;;14.63;;
5199;SDS011;2619;47.868;11.892;2023-02-13T08:22:51;28.37;;;13.37;;
5199;SDS011;2619;47.868;11.892;2023-02-13T08:25:17;29.80;;;14.77;;
5199;SDS011;2619;47.868;11.892;2023-02-13T08:27:43;28.13;;;13.47;;
5199;SDS011;2619;47.868;11.892;2023-02-13T08:30:10;25.73;;;13.87;;
5199;SDS011;2619;47.868;11.892;2023-02-13T08:32:36;28.40;;;13.57;;
5199;SDS011;2619;47.868;11.892;2023-02-13T08:35:02;23.93;;;12.67;;
5199;SDS011;2619;47.868;11.892;2023-02-13T08:37:28;25.17;;;12.70;;
5199;SDS011;2619;47.868;11.892;2023-02-13T08:39:53;25.30;;;12.27;;
5199;SDS011;2619;47.868;11.892;2023-02-13T08:42:19;28.17;;;13.47;;
5199;SDS011;2619;47.868;11.892;2023-02-13T08:44:44;22.50;;;12.40;;
5199;SDS011;2619;47.868;11.892;2023-02-13T08:47:10;20.93;;;12.40;;
5199;SDS011;2619;47.868;11.892;2023-02-13T08:49:36;22.57;;;12.93;;
5199;SDS011;2619;47.868;11.892;2023-02-13T08:52:01;24.60;;;11.37;;
5199;SDS011;2619;47.868;11.892;2023-02-13T08:54:28;25.37;;;12.60;;
5199;SDS011;2619;47.868;11.892;2023-02-13T08:56:53;22.13;;;12.40;;
5199;SDS011;2619;47.868;11.892;2023-02-13T08:59:19;17.60;;;10.80;;
5199;SDS011;2619;47.868;11.892;2023-02-13T09:01:45;25.80;;;13.70;;
5199;SDS011;2619;47.868;11.892;2023-02-13T09:04:11;20.43;;;12.00;;
5199;SDS011;2619;47.868;11.892;2023-02-13T09:06:39;22.27;;;12.30;;
5199;SDS011;2619;47.868;11.892;2023-02-13T09:09:05;20.40;;;10.63;;
5199;SDS011;2619;47.868;11.892;2023-02-13T09:11:31;19.73;;;10.07;;
5199;SDS011;2619;47.868;11.892;2023-02-13T09:13:57;20.37;;;10.53;;
5199;SDS011;2619;47.868;11.892;2023-02-13T09:16:22;18.97;;;9.80;;
5199;SDS011;2619;47.868;11.892;2023-02-13T09:18:48;22.70;;;11.10;;
5199;SDS011;2619;47.868;11.892;2023-02-13T09:21:15;20.90;;;10.97;;
5199;SDS011;2619;47.868;11.892;2023-02-13T09:23:41;19.33;;;10.70;;
5199;SDS011;2619;47.868;11.892;2023-02-13T09:26:08;19.57;;;10.80;;
5199;SDS011;2619;47.868;11.892;2023-02-13T09:28:36;18.93;;;10.13;;
5199;SDS011;2619;47.868;11.892;2023-02-13T09:31:06;19.30;;;10.97;;
5199;SDS011;2619;47.868;11.892;2023-02-13T09:33:32;15.87;;;10.03;;
5199;SDS011;2619;47.868;11.892;2023-02-13T09:36:02;22.13;;;11.90;;
5199;SDS011;2619;47.868;11.892;2023-02-13T09:38:35;15.23;;;9.57;;
5199;SDS011;2619;47.868;11.892;2023-02-13T09:41:09;21.33;;;10.70;;
5199;SDS011;2619;47.868;11.892;2023-02-13T09:46:15;19.57;;;11.87;;
5199;SDS011;2619;47.868;11.892;2023-02-13T09:48:52;18.80;;;10.63;;
5199;SDS011;2619;47.868;11.892;2023-02-13T09:51:20;20.63;;;11.10;;
5199;SDS011;2619;47.868;11.892;2023-02-13T09:53:53;20.20;;;11.30;;
5199;SDS011;2619;47.868;11.892;2023-02-13T09:59:45;16.40;;;10.80;;
5199;SDS011;2619;47.868;11.892;2023-02-13T10:07:35;19.50;;;11.00;;
5199;SDS011;2619;47.868;11.892;2023-02-13T10:18:04;23.53;;;13.17;;
5199;SDS011;2619;47.868;11.892;2023-02-13T10:20:53;23.20;;;12.40;;
5199;SDS011;2619;47.868;11.892;2023-02-13T10:23:32;24.00;;;12.97;;
5199;SDS011;2619;47.868;11.892;2023-02-13T10:26:05;21.20;;;11.00;;
5199;SDS011;2619;47.868;11.892;2023-02-13T10:29:10;24.93;;;12.13;;
5199;SDS011;2619;47.868;11.892;2023-02-13T10:31:48;20.30;;;11.40;;
5199;SDS011;2619;47.868;11.892;2023-02-13T10:34:19;19.23;;;10.27;;
5199;SDS011;2619;47.868;11.892;2023-02-13T10:36:49;20.47;;;11.30;;
5199;SDS011;2619;47.868;11.892;2023-02-13T10:44:29;20.00;;;11.20;;
5199;SDS011;2619;47.868;11.892;2023-02-13T10:58:14;19.03;;;11.27;;
5199;SDS011;2619;47.868;11.892;2023-02-13T11:01:05;20.50;;;12.67;;
5199;SDS011;2619;47.868;11.892;2023-02-13T11:03:44;27.10;;;14.90;;
5199;SDS011;2619;47.868;11.892;2023-02-13T11:06:13;23.07;;;14.50;;
5199;SDS011;2619;47.868;11.892;2023-02-13T11:08:42;20.90;;;13.10;;
5199;SDS011;2619;47.868;11.892;2023-02-13T11:19:32;19.80;;;12.60;;
5199;SDS011;2619;47.868;11.892;2023-02-13T11:24:29;24.90;;;15.03;;
5199;SDS011;2619;47.868;11.892;2023-02-13T11:27:06;23.33;;;15.07;;
5199;SDS011;2619;47.868;11.892;2023-02-13T11:29:37;24.70;;;14.87;;
5199;SDS011;2619;47.868;11.892;2023-02-13T11:32:24;24.87;;;15.07;;
5199;SDS011;2619;47.868;11.892;2023-02-13T11:34:50;21.17;;;13.90;;
5199;SDS011;2619;47.868;11.892;2023-02-13T11:39:51;25.80;;;14.83;;
5199;SDS011;2619;47.868;11.892;2023-02-13T11:42:29;24.33;;;13.17;;
5199;SDS011;2619;47.868;11.892;2023-02-13T11:44:57;26.03;;;15.70;;
5199;SDS011;2619;47.868;11.892;2023-02-13T11:47:42;26.60;;;15.17;;
5199;SDS011;2619;47.868;11.892;2023-02-13T11:53:06;24.93;;;13.53;;
5199;SDS011;2619;47.868;11.892;2023-02-13T11:55:43;26.60;;;16.00;;
5199;SDS011;2619;47.868;11.892;2023-02-13T11:58:24;22.90;;;14.50;;
5199;SDS011;2619;47.868;11.892;2023-02-13T12:01:08;25.27;;;15.27;;
5199;SDS011;2619;47.868;11.892;2023-02-13T12:06:27;23.70;;;14.97;;
5199;SDS011;2619;47.868;11.892;2023-02-13T12:08:53;21.57;;;13.90;;
5199;SDS011;2619;47.868;11.892;2023-02-13T12:11:21;28.80;;;15.87;;
5199;SDS011;2619;47.868;11.892;2023-02-13T12:13:52;24.97;;;14.50;;
5199;SDS011;2619;47.868;11.892;2023-02-13T12:19:05;25.70;;;14.20;;
5199;SDS011;2619;47.868;11.892;2023-02-13T12:21:56;28.80;;;13.90;;
5199;SDS011;2619;47.868;11.892;2023-02-13T12:27:14;22.43;;;13.03;;
5199;SDS011;2619;47.868;11.892;2023-02-13T12:32:17;27.80;;;15.53;;
5199;SDS011;2619;47.868;11.892;2023-02-13T12:40:30;27.33;;;16.70;;
5199;SDS011;2619;47.868;11.892;2023-02-13T12:45:45;30.93;;;16.90;;
5199;SDS011;2619;47.868;11.892;2023-02-13T13:08:17;26.60;;;15.60;;
5199;SDS011;2619;47.868;11.892;2023-02-13T13:16:30;24.03;;;15.87;;
5199;SDS011;2619;47.868;11.892;2023-02-13T13:22:01;29.30;;;17.70;;
5199;SDS011;2619;47.868;11.892;2023-02-13T13:26:59;24.50;;;16.13;;
5199;SDS011;2619;47.868;11.892;2023-02-13T13:29:32;27.73;;;16.43;;
5199;SDS011;2619;47.868;11.892;2023-02-13T13:32:13;26.13;;;15.70;;
5199;SDS011;2619;47.868;11.892;2023-02-13T13:34:42;30.73;;;16.60;;
5199;SDS011;2619;47.868;11.892;2023-02-13T13:45:40;23.37;;;14.57;;
5199;SDS011;2619;47.868;11.892;2023-02-13T13:50:53;23.00;;;15.43;;
5199;SDS011;2619;47.868;11.892;2023-02-13T13:53:20;22.60;;;15.50;;
5199;SDS011;2619;47.868;11.892;2023-02-13T14:03:39;22.90;;;15.17;;
5199;SDS011;2619;47.868;11.892;2023-02-13T14:06:09;22.07;;;13.93;;
5199;SDS011;2619;47.868;11.892;2023-02-13T14:11:05;20.53;;;14.13;;
5199;SDS011;2619;47.868;11.892;2023-02-13T14:13:49;20.33;;;12.17;;
5199;SDS011;2619;47.868;11.892;2023-02-13T14:22:45;18.93;;;11.80;;
5199;SDS011;2619;47.868;11.892;2023-02-13T14:24:51;20.10;;;13.57;;
5199;SDS011;2619;47.868;11.892;2023-02-13T14:29:49;19.67;;;13.90;;
5199;SDS011;2619;47.868;11.892;2023-02-13T14:32:16;20.33;;;13.73;;
5199;SDS011;2619;47.868;11.892;2023-02-13T14:35:03;23.33;;;13.87;;
5199;SDS011;2619;47.868;11.892;2023-02-13T14:37:54;20.37;;;12.50;;
5199;SDS011;2619;47.868;11.892;2023-02-13T14:40:27;19.77;;;12.40;;
5199;SDS011;2619;47.868;11.892;2023-02-13T14:45:54;18.70;;;13.13;;
5199;SDS011;2619;47.868;11.892;2023-02-13T14:48:21;21.93;;;13.93;;
5199;SDS011;2619;47.868;11.892;2023-02-13T14:50:57;18.97;;;12.17;;
5199;SDS011;2619;47.868;11.892;2023-02-13T14:53:32;24.30;;;13.70;;
5199;SDS011;2619;47.868;11.892;2023-02-13T14:56:12;20.03;;;13.07;;
5199;SDS011;2619;47.868;11.892;2023-02-13T14:58:50;21.47;;;13.63;;
5199;SDS011;2619;47.868;11.892;2023-02-13T15:04:08;23.07;;;14.20;;
5199;SDS011;2619;47.868;11.892;2023-02-13T15:06:42;20.77;;;13.47;;
5199;SDS011;2619;47.868;11.892;2023-02-13T15:09:16;24.70;;;15.27;;
5199;SDS011;2619;47.868;11.892;2023-02-13T15:12:02;20.57;;;14.00;;
5199;SDS011;2619;47.868;11.892;2023-02-13T15:14:33;19.10;;;12.87;;
5199;SDS011;2619;47.868;11.892;2023-02-13T15:19:49;21.17;;;12.20;;
5199;SDS011;2619;47.868;11.892;2023-02-13T15:22:44;19.23;;;12.47;;
5199;SDS011;2619;47.868;11.892;2023-02-13T15:25:21;21.63;;;12.17;;
5199;SDS011;2619;47.868;11.892;2023-02-13T15:27:58;22.20;;;13.60;;
5199;SDS011;2619;47.868;11.892;2023-02-13T15:30:29;19.37;;;11.43;;
5199;SDS011;2619;47.868;11.892;2023-02-13T15:33:11;23.30;;;13.30;;
5199;SDS011;2619;47.868;11.892;2023-02-13T15:35:42;22.17;;;12.90;;
5199;SDS011;2619;47.868;11.892;2023-02-13T15:38:24;22.10;;;14.27;;
5199;SDS011;2619;47.868;11.892;2023-02-13T15:43:42;21.87;;;12.97;;
5199;SDS011;2619;47.868;11.892;2023-02-13T15:49:07;26.50;;;14.23;;
5199;SDS011;2619;47.868;11.892;2023-02-13T15:51:38;23.43;;;13.67;;
5199;SDS011;2619;47.868;11.892;2023-02-13T15:54:20;23.23;;;14.10;;
5199;SDS011;2619;47.868;11.892;2023-02-13T15:56:47;27.77;;;14.33;;
5199;SDS011;2619;47.868;11.892;2023-02-13T15:59:15;25.57;;;14.50;;
5199;SDS011;2619;47.868;11.892;2023-02-13T16:01:42;22.90;;;14.37;;
5199;SDS011;2619;47.868;11.892;2023-02-13T16:04:09;27.17;;;14.20;;
5199;SDS011;2619;47.868;11.892;2023-02-13T16:06:39;24.43;;;13.83;;
5199;SDS011;2619;47.868;11.892;2023-02-13T16:09:20;24.77;;;14.47;;
5199;SDS011;2619;47.868;11.892;2023-02-13T16:11:58;21.70;;;12.57;;
5199;SDS011;2619;47.868;11.892;2023-02-13T16:14:50;25.10;;;14.40;;
5199;SDS011;2619;47.868;11.892;2023-02-13T16:17:34;24.10;;;13.93;;
5199;SDS011;2619;47.868;11.892;2023-02-13T16:20:02;21.63;;;13.97;;
5199;SDS011;2619;47.868;11.892;2023-02-13T16:22:36;25.10;;;14.40;;
5199;SDS011;2619;47.868;11.892;2023-02-13T16:27:35;26.37;;;14.70;;
5199;SDS011;2619;47.868;11.892;2023-02-13T16:30:06;27.50;;;14.97;;
5199;SDS011;2619;47.868;11.892;2023-02-13T16:32:46;28.57;;;15.03;;
5199;SDS011;2619;47.868;11.892;2023-02-13T16:35:28;29.50;;;16.10;;
5199;SDS011;2619;47.868;11.892;2023-02-13T16:37:57;25.30;;;15.53;;
5199;SDS011;2619;47.868;11.892;2023-02-13T16:40:40;26.13;;;15.87;;
5199;SDS011;2619;47.868;11.892;2023-02-13T16:48:43;29.63;;;16.97;;
5199;SDS011;2619;47.868;11.892;2023-02-13T16:51:29;26.77;;;16.20;;
5199;SDS011;2619;47.868;11.892;2023-02-13T16:53:59;27.97;;;16.53;;
5199;SDS011;2619;47.868;11.892;2023-02-13T16:56:28;27.90;;;16.77;;
5199;SDS011;2619;47.868;11.892;2023-02-13T17:04:36;26.57;;;15.60;;
5199;SDS011;2619;47.868;11.892;2023-02-13T17:07:03;29.23;;;16.30;;
5199;SDS011;2619;47.868;11.892;2023-02-13T17:09:29;28.67;;;16.10;;
5199;SDS011;2619;47.868;11.892;2023-02-13T17:11:55;27.63;;;16.37;;
5199;SDS011;2619;47.868;11.892;2023-02-13T17:14:20;29.00;;;16.10;;
5199;SDS011;2619;47.868;11.892;2023-02-13T17:16:46;26.80;;;16.40;;
5199;SDS011;2619;47.868;11.892;2023-02-13T17:19:12;29.67;;;16.53;;
5199;SDS011;2619;47.868;11.892;2023-02-13T17:21:38;29.13;;;16.80;;
5199;SDS011;2619;47.868;11.892;2023-02-13T17:24:04;28.53;;;17.20;;
5199;SDS011;2619;47.868;11.892;2023-02-13T17:26:30;27.60;;;16.63;;
5199;SDS011;2619;47.868;11.892;2023-02-13T17:28:56;35.00;;;18.17;;
5199;SDS011;2619;47.868;11.892;2023-02-13T17:31:21;28.83;;;16.30;;
5199;SDS011;2619;47.868;11.892;2023-02-13T17:33:47;33.77;;;17.17;;
5199;SDS011;2619;47.868;11.892;2023-02-13T17:36:12;30.43;;;16.10;;
5199;SDS011;2619;47.868;11.892;2023-02-13T17:38:38;33.33;;;17.60;;
5199;SDS011;2619;47.868;11.892;2023-02-13T17:41:10;34.30;;;18.50;;
5199;SDS011;2619;47.868;11.892;2023-02-13T17:43:39;35.33;;;18.33;;
5199;SDS011;2619;47.868;11.892;2023-02-13T17:46:05;37.30;;;19.70;;
5199;SDS011;2619;47.868;11.892;2023-02-13T17:48:31;32.00;;;18.50;;
5199;SDS011;2619;47.868;11.892;2023-02-13T17:50:56;34.33;;;18.50;;
5199;SDS011;2619;47.868;11.892;2023-02-13T17:55:51;34.60;;;18.67;;
5199;SDS011;2619;47.868;11.892;2023-02-13T17:58:17;36.53;;;20.37;;
5199;SDS011;2619;47.868;11.892;2023-02-13T18:00:43;31.20;;;17.87;;
5199;SDS011;2619;47.868;11.892;2023-02-13T18:03:09;37.33;;;19.57;;
5199;SDS011;2619;47.868;11.892;2023-02-13T18:05:36;32.43;;;18.47;;
5199;SDS011;2619;47.868;11.892;2023-02-13T18:08:02;30.10;;;16.90;;
5199;SDS011;2619;47.868;11.892;2023-02-13T18:10:29;31.37;;;17.80;;
5199;SDS011;2619;47.868;11.892;2023-02-13T18:13:02;32.87;;;17.63;;
5199;SDS011;2619;47.868;11.892;2023-02-13T18:15:29;36.13;;;19.40;;
5199;SDS011;2619;47.868;11.892;2023-02-13T18:17:59;30.87;;;17.77;;
5199;SDS011;2619;47.868;11.892;2023-02-13T18:20:24;32.87;;;18.20;;
5199;SDS011;2619;47.868;11.892;2023-02-13T18:22:50;29.20;;;16.60;;
5199;SDS011;2619;47.868;11.892;2023-02-13T18:25:16;35.97;;;19.73;;
5199;SDS011;2619;47.868;11.892;2023-02-13T18:27:43;31.87;;;17.70;;